Time;durP1;ratioP1;P1;durP2;ratioP2;P2;SDS_P1;SDS_P2;PMS_P1;PMS_P2;Temp;Humidity;BMP_temperature;BMP_pressure;BME280_temperature;BME280_humidity;BME280_pressure;Samples;Min_cycle;Max_cycle;Signal;HPM_P1;HPM_P2
2022/09/11 00:01:15;;;;;;;3.80;1.40;;;;;;;;;;5058370;28;20032;-80
2022/09/11 00:03:42;;;;;;;3.63;1.40;;;;;;;;;;5058437;28;20028;-80
2022/09/11 00:06:10;;;;;;;3.20;1.50;;;;;;;;;;5057967;28;20029;-81
2022/09/11 00:08:37;;;;;;;2.95;1.38;;;;;;;;;;5058761;28;20032;-80
2022/09/11 00:11:16;;;;;;;3.60;1.30;;;;;;;;;;5057764;28;20092;-80
2022/09/11 00:13:42;;;;;;;3.00;1.38;;;;;;;;;;5056817;28;20017;-80
2022/09/11 00:16:17;;;;;;;2.90;1.38;;;;;;;;;;5058329;28;20025;-81
2022/09/11 00:18:45;;;;;;;3.55;1.60;;;;;;;;;;5057896;28;20599;-80
2022/09/11 00:21:11;;;;;;;3.40;1.58;;;;;;;;;;5056958;28;20157;-80
2022/09/11 00:23:37;;;;;;;3.83;1.60;;;;;;;;;;5055144;28;20453;-79
2022/09/11 00:26:05;;;;;;;3.50;1.60;;;;;;;;;;5058075;28;20043;-80
2022/09/11 00:28:31;;;;;;;3.88;1.50;;;;;;;;;;5055983;28;20021;-80
2022/09/11 00:30:58;;;;;;;3.92;1.77;;;;;;;;;;5057526;28;20032;-80
2022/09/11 00:33:24;;;;;;;4.88;1.98;;;;;;;;;;5058422;28;20024;-81
2022/09/11 00:36:00;;;;;;;4.45;1.75;;;;;;;;;;5059293;28;20444;-80
2022/09/11 00:38:27;;;;;;;3.97;1.65;;;;;;;;;;5060080;28;20021;-79
2022/09/11 00:40:54;;;;;;;3.90;1.90;;;;;;;;;;5055891;28;20102;-80
2022/09/11 00:43:20;;;;;;;3.42;1.70;;;;;;;;;;5059156;28;20554;-80
2022/09/11 00:45:48;;;;;;;3.50;1.80;;;;;;;;;;5059472;28;20064;-80
2022/09/11 00:48:17;;;;;;;4.47;1.80;;;;;;;;;;5059282;28;20029;-81
2022/09/11 00:50:44;;;;;;;5.55;2.00;;;;;;;;;;5059187;28;20609;-78
2022/09/11 00:53:10;;;;;;;3.97;1.95;;;;;;;;;;5058514;28;20059;-80
2022/09/11 00:55:37;;;;;;;4.18;1.70;;;;;;;;;;5058779;28;20313;-80
2022/09/11 00:58:05;;;;;;;3.33;1.67;;;;;;;;;;5057787;28;20100;-79
2022/09/11 01:00:31;;;;;;;3.70;2.00;;;;;;;;;;5053679;28;20032;-80
2022/09/11 01:02:57;;;;;;;4.88;2.63;;;;;;;;;;5058275;28;20045;-79
2022/09/11 01:05:25;;;;;;;4.65;2.10;;;;;;;;;;5056992;28;20017;-80
2022/09/11 01:07:53;;;;;;;4.30;2.05;;;;;;;;;;5056808;28;20032;-81
2022/09/11 01:10:23;;;;;;;4.05;2.30;;;;;;;;;;5053058;28;20499;-80
2022/09/11 01:12:49;;;;;;;4.30;1.92;;;;;;;;;;5043525;28;20437;-81
2022/09/11 01:15:20;;;;;;;3.72;1.92;;;;;;;;;;5046779;28;20312;-81
2022/09/11 01:18:22;;;;;;;3.70;1.70;;;;;;;;;;5053769;28;20021;-80
2022/09/11 01:21:06;;;;;;;3.70;1.83;;;;;;;;;;5051739;28;20028;-81
2022/09/11 01:23:55;;;;;;;4.03;2.00;;;;;;;;;;5055478;28;20045;-80
2022/09/11 01:26:31;;;;;;;3.80;1.92;;;;;;;;;;5055114;28;20044;-80
2022/09/11 01:28:57;;;;;;;3.85;1.60;;;;;;;;;;5055790;28;20016;-80
2022/09/11 01:31:25;;;;;;;3.97;1.98;;;;;;;;;;5044033;28;20493;-80
2022/09/11 01:33:58;;;;;;;4.35;1.70;;;;;;;;;;5037913;28;20064;-81
2022/09/11 01:36:38;;;;;;;3.70;1.83;;;;;;;;;;5054725;28;20025;-80
2022/09/11 01:39:04;;;;;;;3.80;2.00;;;;;;;;;;5056198;28;20025;-81
2022/09/11 01:41:39;;;;;;;4.30;1.70;;;;;;;;;;5043922;28;20029;-80
2022/09/11 01:44:09;;;;;;;4.50;2.20;;;;;;;;;;5038110;28;20045;-79
2022/09/11 01:46:40;;;;;;;3.58;1.73;;;;;;;;;;5050224;28;20045;-80
2022/09/11 01:49:10;;;;;;;5.10;1.80;;;;;;;;;;5057019;28;20042;-80
2022/09/11 01:51:37;;;;;;;4.10;1.58;;;;;;;;;;5054702;28;20107;-80
2022/09/11 01:54:06;;;;;;;3.65;1.70;;;;;;;;;;5055420;28;20025;-79
2022/09/11 01:56:41;;;;;;;4.10;1.50;;;;;;;;;;5055490;28;20119;-80
2022/09/11 01:59:10;;;;;;;3.60;1.70;;;;;;;;;;5054775;28;20515;-80
2022/09/11 02:01:38;;;;;;;3.30;1.70;;;;;;;;;;5055363;28;20036;-79
2022/09/11 02:04:13;;;;;;;4.10;1.75;;;;;;;;;;5056238;28;20032;-80
2022/09/11 02:06:45;;;;;;;4.32;1.60;;;;;;;;;;5056322;28;20023;-79
2022/09/11 02:09:14;;;;;;;3.15;1.65;;;;;;;;;;5057189;28;20033;-79
2022/09/11 02:11:41;;;;;;;4.50;1.85;;;;;;;;;;5052013;28;20116;-79
2022/09/11 02:14:25;;;;;;;4.90;1.75;;;;;;;;;;5056768;28;20409;-79
2022/09/11 02:16:52;;;;;;;4.05;1.90;;;;;;;;;;5057328;28;20021;-79
2022/09/11 02:19:25;;;;;;;3.72;1.67;;;;;;;;;;5056727;28;20076;-78
2022/09/11 02:21:51;;;;;;;5.03;2.03;;;;;;;;;;5043544;28;20618;-79
2022/09/11 02:24:17;;;;;;;4.00;1.60;;;;;;;;;;5050096;28;20029;-79
2022/09/11 02:26:46;;;;;;;4.07;1.67;;;;;;;;;;5056424;28;20040;-80
2022/09/11 02:29:13;;;;;;;3.72;1.60;;;;;;;;;;5056647;28;20388;-82
2022/09/11 02:31:40;;;;;;;3.90;1.80;;;;;;;;;;5055138;28;20025;-80
2022/09/11 02:34:06;;;;;;;4.13;2.13;;;;;;;;;;5057219;28;20036;-79
2022/09/11 02:36:33;;;;;;;3.78;1.95;;;;;;;;;;5055319;28;20115;-80
2022/09/11 02:39:02;;;;;;;4.28;2.15;;;;;;;;;;5058806;28;20051;-79
2022/09/11 02:41:32;;;;;;;4.07;2.15;;;;;;;;;;5059405;28;20080;-81
2022/09/11 02:44:07;;;;;;;3.80;1.90;;;;;;;;;;5059520;28;20033;-81
2022/09/11 02:47:09;;;;;;;4.00;2.00;;;;;;;;;;5059845;28;20481;-80
2022/09/11 02:49:35;;;;;;;3.70;2.00;;;;;;;;;;5093120;28;20035;-79
2022/09/11 02:52:02;;;;;;;4.70;2.00;;;;;;;;;;5079241;28;20065;-79
2022/09/11 02:54:29;;;;;;;4.60;2.10;;;;;;;;;;5058825;28;20502;-79
2022/09/11 02:57:05;;;;;;;4.10;2.20;;;;;;;;;;5059541;28;20092;-79
2022/09/11 02:59:44;;;;;;;4.50;2.17;;;;;;;;;;5060303;28;20036;-79
2022/09/11 03:02:12;;;;;;;4.68;2.25;;;;;;;;;;5059049;28;20017;-79
2022/09/11 03:04:38;;;;;;;4.65;2.40;;;;;;;;;;5058627;28;20112;-80
2022/09/11 03:07:05;;;;;;;5.28;2.58;;;;;;;;;;5060990;28;20021;-81
2022/09/11 03:09:33;;;;;;;4.45;2.35;;;;;;;;;;5060844;28;20074;-80
2022/09/11 03:11:59;;;;;;;4.43;2.10;;;;;;;;;;5059782;28;20007;-80
2022/09/11 03:14:25;;;;;;;4.20;2.50;;;;;;;;;;5060078;28;20484;-81
2022/09/11 03:16:51;;;;;;;4.25;2.30;;;;;;;;;;5059387;28;20082;-79
2022/09/11 03:19:17;;;;;;;4.50;1.95;;;;;;;;;;5059774;28;20485;-80
2022/09/11 03:21:44;;;;;;;3.40;1.80;;;;;;;;;;5050369;28;20036;-80
2022/09/11 03:24:12;;;;;;;3.28;1.83;;;;;;;;;;5059630;28;20059;-80
2022/09/11 03:26:38;;;;;;;4.68;2.13;;;;;;;;;;5059701;28;20029;-79
2022/09/11 03:29:04;;;;;;;5.20;2.35;;;;;;;;;;5060666;28;20035;-81
2022/09/11 03:31:30;;;;;;;3.58;1.88;;;;;;;;;;5055522;28;20025;-80
2022/09/11 03:33:56;;;;;;;4.53;2.22;;;;;;;;;;5059696;28;20032;-81
2022/09/11 03:36:23;;;;;;;4.75;2.20;;;;;;;;;;5060317;28;20051;-80
2022/09/11 03:38:50;;;;;;;4.25;2.13;;;;;;;;;;5060345;28;20105;-81
2022/09/11 03:41:16;;;;;;;3.85;2.17;;;;;;;;;;5052140;28;20025;-81
2022/09/11 03:43:41;;;;;;;3.70;1.90;;;;;;;;;;5041998;28;20033;-80
2022/09/11 03:46:07;;;;;;;3.90;2.10;;;;;;;;;;5060244;28;20045;-80
2022/09/11 03:48:34;;;;;;;4.15;2.05;;;;;;;;;;5057852;28;20081;-81
2022/09/11 03:51:00;;;;;;;6.15;2.35;;;;;;;;;;5058630;28;20067;-81
2022/09/11 03:53:26;;;;;;;5.22;2.30;;;;;;;;;;5058268;28;20248;-80
2022/09/11 03:55:53;;;;;;;3.83;2.22;;;;;;;;;;5059577;28;20025;-81
2022/09/11 03:58:19;;;;;;;5.30;2.70;;;;;;;;;;5058921;28;20024;-80
2022/09/11 04:00:46;;;;;;;4.97;2.38;;;;;;;;;;5057857;28;20068;-80
2022/09/11 04:03:14;;;;;;;5.30;2.30;;;;;;;;;;5058401;28;20055;-80
2022/09/11 04:05:40;;;;;;;4.68;2.50;;;;;;;;;;5058663;28;20388;-79
2022/09/11 04:08:06;;;;;;;4.57;2.70;;;;;;;;;;5058018;28;20454;-80
2022/09/11 04:10:34;;;;;;;4.25;2.25;;;;;;;;;;5057197;28;20040;-80
2022/09/11 04:13:00;;;;;;;4.40;2.35;;;;;;;;;;5037990;28;20021;-80
2022/09/11 04:15:26;;;;;;;4.28;2.30;;;;;;;;;;5040908;28;20610;-80
2022/09/11 04:17:52;;;;;;;6.00;2.60;;;;;;;;;;5055855;28;20045;-81
2022/09/11 04:20:19;;;;;;;5.72;2.90;;;;;;;;;;5057595;28;20113;-81
2022/09/11 04:22:46;;;;;;;4.85;2.42;;;;;;;;;;5055652;28;20496;-80
2022/09/11 04:25:13;;;;;;;4.80;2.70;;;;;;;;;;5057359;28;20032;-80
2022/09/11 04:27:39;;;;;;;5.15;2.55;;;;;;;;;;5047376;28;20033;-80
2022/09/11 04:30:05;;;;;;;5.07;2.90;;;;;;;;;;5047867;28;20329;-80
2022/09/11 04:32:33;;;;;;;5.57;3.10;;;;;;;;;;5055169;28;20017;-80
2022/09/11 04:35:00;;;;;;;4.22;2.28;;;;;;;;;;5055204;28;20047;-80
2022/09/11 04:37:27;;;;;;;6.55;2.42;;;;;;;;;;5052722;28;20027;-81
2022/09/11 04:39:53;;;;;;;4.75;2.20;;;;;;;;;;5049327;28;20111;-79
2022/09/11 04:42:20;;;;;;;4.78;2.65;;;;;;;;;;5048734;28;20049;-79
2022/09/11 04:44:46;;;;;;;5.20;2.03;;;;;;;;;;5052738;28;20115;-80
2022/09/11 04:47:12;;;;;;;5.13;2.47;;;;;;;;;;5051704;28;20080;-80
2022/09/11 04:49:39;;;;;;;4.85;2.38;;;;;;;;;;5052924;28;20063;-79
2022/09/11 04:52:06;;;;;;;4.53;2.50;;;;;;;;;;5050810;28;20560;-78
2022/09/11 04:54:35;;;;;;;5.10;2.30;;;;;;;;;;5041540;28;20436;-79
2022/09/11 04:57:02;;;;;;;4.57;2.50;;;;;;;;;;5035996;28;20031;-79
2022/09/11 04:59:28;;;;;;;4.88;2.30;;;;;;;;;;5049475;28;20078;-81
2022/09/11 05:01:54;;;;;;;5.35;2.38;;;;;;;;;;5044094;28;20029;-79
2022/09/11 05:04:20;;;;;;;5.00;2.25;;;;;;;;;;5055077;28;20512;-78
2022/09/11 05:06:49;;;;;;;5.13;2.38;;;;;;;;;;5056582;28;20025;-80
2022/09/11 05:09:16;;;;;;;5.05;3.13;;;;;;;;;;5056521;28;20029;-80
2022/09/11 05:11:42;;;;;;;5.45;2.50;;;;;;;;;;5050959;28;20052;-80
2022/09/11 05:14:10;;;;;;;4.30;2.47;;;;;;;;;;5041062;28;20017;-81
2022/09/11 05:16:36;;;;;;;4.50;2.58;;;;;;;;;;5055567;28;20508;-80
2022/09/11 05:19:03;;;;;;;6.15;3.50;;;;;;;;;;5049274;28;20021;-80
2022/09/11 05:21:29;;;;;;;5.13;3.25;;;;;;;;;;5050615;28;20380;-80
2022/09/11 05:24:00;;;;;;;5.32;3.10;;;;;;;;;;5059137;28;20084;-82
2022/09/11 05:26:29;;;;;;;5.05;3.05;;;;;;;;;;5055301;28;20021;-82
2022/09/11 05:28:56;;;;;;;5.68;3.00;;;;;;;;;;5056239;28;20044;-81
2022/09/11 05:31:24;;;;;;;5.15;3.22;;;;;;;;;;5055015;28;20532;-79
2022/09/11 05:33:51;;;;;;;5.28;2.97;;;;;;;;;;5049445;28;20071;-81
2022/09/11 05:36:17;;;;;;;5.05;2.88;;;;;;;;;;5054264;28;20018;-81
2022/09/11 05:38:43;;;;;;;5.20;2.97;;;;;;;;;;5050661;28;20368;-80
2022/09/11 05:41:11;;;;;;;4.80;2.80;;;;;;;;;;5047195;28;20370;-84
2022/09/11 05:43:38;;;;;;;6.03;3.20;;;;;;;;;;5055323;28;20040;-82
2022/09/11 05:46:04;;;;;;;5.75;3.40;;;;;;;;;;5042941;28;20060;-83
2022/09/11 05:48:31;;;;;;;4.80;2.67;;;;;;;;;;5041141;28;20038;-83
2022/09/11 05:50:58;;;;;;;4.82;2.65;;;;;;;;;;5044232;28;20044;-81
2022/09/11 05:53:25;;;;;;;4.90;2.90;;;;;;;;;;5056169;28;20051;-79
2022/09/11 05:55:51;;;;;;;4.55;2.20;;;;;;;;;;5057069;28;20021;-81
2022/09/11 05:58:18;;;;;;;4.60;2.65;;;;;;;;;;5050099;28;20105;-80
2022/09/11 06:00:47;;;;;;;5.32;3.10;;;;;;;;;;5049727;28;20021;-82
2022/09/11 06:03:14;;;;;;;5.53;2.40;;;;;;;;;;5052483;28;20392;-82
2022/09/11 06:05:40;;;;;;;4.63;2.35;;;;;;;;;;5055167;28;20029;-81
2022/09/11 06:08:10;;;;;;;4.00;2.10;;;;;;;;;;5052802;28;20040;-81
2022/09/11 06:10:37;;;;;;;3.90;2.10;;;;;;;;;;5053531;28;20037;-82
2022/09/11 06:13:03;;;;;;;4.07;1.95;;;;;;;;;;5050814;28;20029;-80
2022/09/11 06:15:31;;;;;;;3.65;1.80;;;;;;;;;;5047481;28;20071;-80
2022/09/11 06:17:58;;;;;;;5.53;2.00;;;;;;;;;;5058639;28;20029;-79
2022/09/11 06:20:24;;;;;;;3.80;1.95;;;;;;;;;;5058111;28;20101;-80
2022/09/11 06:22:50;;;;;;;4.60;2.05;;;;;;;;;;5059045;28;20056;-80
2022/09/11 06:25:16;;;;;;;4.22;2.05;;;;;;;;;;5062836;28;20029;-79
2022/09/11 06:27:42;;;;;;;3.90;2.00;;;;;;;;;;5049293;28;20063;-84
2022/09/11 06:30:09;;;;;;;4.55;2.08;;;;;;;;;;5055929;28;20028;-83
2022/09/11 06:32:35;;;;;;;3.92;2.15;;;;;;;;;;5054245;28;20021;-80
2022/09/11 06:35:01;;;;;;;4.13;2.10;;;;;;;;;;5058773;28;20104;-83
2022/09/11 06:37:27;;;;;;;4.10;2.10;;;;;;;;;;5056237;28;20025;-81
2022/09/11 06:39:53;;;;;;;5.65;2.05;;;;;;;;;;5046295;28;20555;-82
2022/09/11 06:42:19;;;;;;;5.18;1.95;;;;;;;;;;5052872;28;20061;-80
2022/09/11 06:44:45;;;;;;;6.85;2.60;;;;;;;;;;5051926;28;20067;-82
2022/09/11 06:47:12;;;;;;;3.30;1.60;;;;;;;;;;5056652;28;20111;-80
2022/09/11 06:49:38;;;;;;;4.30;2.40;;;;;;;;;;5051709;28;20120;-83
2022/09/11 06:52:04;;;;;;;5.28;2.10;;;;;;;;;;5057380;28;20796;-82
2022/09/11 06:54:30;;;;;;;4.30;2.30;;;;;;;;;;5055256;28;20052;-81
2022/09/11 06:56:56;;;;;;;6.03;2.75;;;;;;;;;;5058279;28;20017;-81
2022/09/11 06:59:23;;;;;;;4.70;2.28;;;;;;;;;;5054052;28;20503;-79
2022/09/11 07:01:50;;;;;;;4.00;2.22;;;;;;;;;;5051928;28;20507;-81
2022/09/11 07:04:16;;;;;;;4.22;2.38;;;;;;;;;;5057167;28;20036;-80
2022/09/11 07:06:43;;;;;;;3.90;2.10;;;;;;;;;;5057741;28;20025;-81
2022/09/11 07:09:10;;;;;;;4.28;2.60;;;;;;;;;;5057141;28;20059;-81
2022/09/11 07:11:37;;;;;;;5.90;2.75;;;;;;;;;;5047935;28;20040;-82
2022/09/11 07:14:05;;;;;;;5.75;2.90;;;;;;;;;;5062249;28;20031;-82
2022/09/11 07:16:34;;;;;;;6.07;2.42;;;;;;;;;;5061164;28;20036;-82
2022/09/11 07:19:00;;;;;;;6.47;3.40;;;;;;;;;;5055654;28;20039;-84
2022/09/11 07:21:27;;;;;;;5.88;2.90;;;;;;;;;;5055945;28;20056;-84
2022/09/11 07:23:55;;;;;;;5.00;2.58;;;;;;;;;;5062054;28;20033;-82
2022/09/11 07:26:21;;;;;;;4.50;2.50;;;;;;;;;;5063046;28;20017;-83
2022/09/11 07:28:49;;;;;;;5.70;2.40;;;;;;;;;;5062130;28;20029;-84
2022/09/11 07:31:22;;;;;;;5.00;2.70;;;;;;;;;;5062573;28;20028;-83
2022/09/11 07:33:49;;;;;;;4.72;2.08;;;;;;;;;;5064235;28;20029;-84
2022/09/11 07:36:17;;;;;;;5.85;2.60;;;;;;;;;;5062152;28;20027;-84
2022/09/11 07:38:44;;;;;;;4.55;2.35;;;;;;;;;;5061625;28;20108;-84
2022/09/11 07:41:10;;;;;;;5.90;2.30;;;;;;;;;;5062499;28;20025;-82
2022/09/11 07:43:37;;;;;;;4.40;2.10;;;;;;;;;;5062776;28;20025;-84
2022/09/11 07:46:04;;;;;;;5.13;2.38;;;;;;;;;;5060851;28;20037;-85
2022/09/11 07:48:30;;;;;;;4.20;2.15;;;;;;;;;;5059250;28;20029;-85
2022/09/11 07:51:02;;;;;;;4.85;2.60;;;;;;;;;;5064395;28;20056;-83
2022/09/11 07:53:39;;;;;;;4.20;2.08;;;;;;;;;;5076998;28;20025;-84
2022/09/11 07:56:07;;;;;;;5.05;2.47;;;;;;;;;;5053008;28;20025;-84
2022/09/11 07:58:34;;;;;;;4.47;2.50;;;;;;;;;;5055575;28;20404;-84
2022/09/11 08:01:01;;;;;;;5.30;2.30;;;;;;;;;;5059982;28;20080;-81
2022/09/11 08:03:27;;;;;;;4.65;2.30;;;;;;;;;;5066033;28;20481;-83
2022/09/11 08:06:04;;;;;;;7.00;2.42;;;;;;;;;;5063229;28;20025;-83
2022/09/11 08:08:30;;;;;;;5.32;2.20;;;;;;;;;;5061836;28;20070;-82
2022/09/11 08:10:57;;;;;;;6.53;2.08;;;;;;;;;;5060851;28;20025;-83
2022/09/11 08:13:24;;;;;;;4.07;2.08;;;;;;;;;;5062819;28;20021;-83
2022/09/11 08:15:50;;;;;;;5.45;2.50;;;;;;;;;;5051526;28;20563;-83
2022/09/11 08:18:16;;;;;;;4.57;2.33;;;;;;;;;;5071034;28;20034;-82
2022/09/11 08:20:43;;;;;;;3.67;1.92;;;;;;;;;;5059853;28;20039;-84
2022/09/11 08:23:10;;;;;;;5.40;2.45;;;;;;;;;;5057657;28;20056;-82
2022/09/11 08:25:36;;;;;;;5.57;3.00;;;;;;;;;;5049236;28;20142;-83
2022/09/11 08:28:02;;;;;;;4.90;2.30;;;;;;;;;;5046396;28;20111;-83
2022/09/11 08:30:29;;;;;;;4.30;2.22;;;;;;;;;;5057878;28;20025;-82
2022/09/11 08:32:55;;;;;;;3.95;2.05;;;;;;;;;;5056542;28;20492;-81
2022/09/11 08:35:21;;;;;;;5.05;2.58;;;;;;;;;;5059737;28;20024;-81
2022/09/11 08:37:47;;;;;;;4.15;1.88;;;;;;;;;;5058003;28;20025;-81
2022/09/11 08:40:13;;;;;;;4.65;2.40;;;;;;;;;;5057428;28;20085;-82
2022/09/11 08:42:44;;;;;;;4.68;2.20;;;;;;;;;;5041096;28;20033;-81
2022/09/11 08:45:14;;;;;;;4.20;2.10;;;;;;;;;;5056120;28;20029;-82
2022/09/11 08:47:41;;;;;;;4.10;1.98;;;;;;;;;;5055555;28;20136;-82
2022/09/11 08:50:11;;;;;;;4.43;2.10;;;;;;;;;;5057563;28;20091;-82
2022/09/11 08:52:38;;;;;;;4.10;2.05;;;;;;;;;;5057164;28;21495;-81
2022/09/11 08:55:05;;;;;;;4.38;2.40;;;;;;;;;;5056435;28;20075;-82
2022/09/11 08:57:41;;;;;;;5.45;2.58;;;;;;;;;;5057906;28;20017;-82
2022/09/11 09:00:16;;;;;;;4.07;2.17;;;;;;;;;;5058304;28;20488;-81
2022/09/11 09:02:55;;;;;;;4.25;2.17;;;;;;;;;;5055978;28;20392;-79
2022/09/11 09:05:30;;;;;;;3.80;2.10;;;;;;;;;;5052555;28;20025;-82
2022/09/11 09:08:15;;;;;;;4.30;2.50;;;;;;;;;;5055944;28;20033;-80
2022/09/11 09:10:50;;;;;;;5.93;2.50;;;;;;;;;;5059420;28;20044;-80
2022/09/11 09:13:22;;;;;;;4.30;2.20;;;;;;;;;;5053357;28;20100;-83
2022/09/11 09:15:48;;;;;;;4.82;2.35;;;;;;;;;;5055240;28;20186;-81
2022/09/11 09:18:18;;;;;;;4.57;2.40;;;;;;;;;;5054841;28;20060;-81
2022/09/11 09:20:48;;;;;;;3.90;2.05;;;;;;;;;;5051689;28;20332;-81
2022/09/11 09:23:23;;;;;;;4.13;1.98;;;;;;;;;;5054716;28;20086;-83
2022/09/11 09:25:51;;;;;;;4.10;2.17;;;;;;;;;;5050596;28;20068;-80
2022/09/11 09:28:18;;;;;;;4.72;2.22;;;;;;;;;;5056717;28;20573;-82
2022/09/11 09:31:04;;;;;;;3.95;2.10;;;;;;;;;;5056511;28;20068;-80
2022/09/11 09:33:33;;;;;;;4.05;2.25;;;;;;;;;;5058324;28;20500;-83
2022/09/11 09:36:09;;;;;;;3.85;1.80;;;;;;;;;;5043174;28;20539;-83
2022/09/11 09:38:35;;;;;;;3.47;1.70;;;;;;;;;;5059055;28;20036;-80
2022/09/11 09:41:04;;;;;;;3.70;1.98;;;;;;;;;;5072002;28;20021;-80
2022/09/11 09:43:49;;;;;;;3.40;1.75;;;;;;;;;;5049364;28;20032;-80
2022/09/11 09:46:34;;;;;;;5.03;2.33;;;;;;;;;;5047067;28;20049;-80
2022/09/11 09:49:00;;;;;;;3.90;2.13;;;;;;;;;;5059446;28;20025;-80
2022/09/11 09:51:27;;;;;;;5.13;2.65;;;;;;;;;;5063045;28;20025;-80
2022/09/11 09:53:59;;;;;;;4.53;2.50;;;;;;;;;;5055783;28;20535;-79
2022/09/11 09:56:25;;;;;;;;;;;;;;;;;;5056246;28;20024;-80
2022/09/11 09:58:59;;;;;;;4.60;2.22;;;;;;;;;;5056764;28;19904;-82
2022/09/11 10:01:43;;;;;;;4.28;2.42;;;;;;;;;;5060843;28;20028;-81
2022/09/11 10:04:12;;;;;;;5.30;2.55;;;;;;;;;;5058220;28;20484;-82
2022/09/11 10:06:38;;;;;;;4.05;2.17;;;;;;;;;;5054445;28;20481;-83
2022/09/11 10:09:05;;;;;;;4.40;2.50;;;;;;;;;;5056264;28;20033;-81
2022/09/11 10:11:31;;;;;;;4.50;2.30;;;;;;;;;;5064796;28;20421;-81
2022/09/11 10:13:58;;;;;;;4.70;2.70;;;;;;;;;;5048693;28;20034;-80
2022/09/11 10:16:25;;;;;;;4.50;2.40;;;;;;;;;;5058064;28;20498;-82
2022/09/11 10:18:53;;;;;;;4.53;2.97;;;;;;;;;;5058967;28;20021;-78
2022/09/11 10:21:29;;;;;;;4.85;2.42;;;;;;;;;;5064420;28;20033;-80
2022/09/11 10:23:59;;;;;;;5.15;2.80;;;;;;;;;;5054450;28;20022;-79
2022/09/11 10:26:31;;;;;;;5.38;2.78;;;;;;;;;;5038391;28;20045;-81
2022/09/11 10:29:16;;;;;;;4.57;2.90;;;;;;;;;;5051287;28;20052;-79
2022/09/11 10:31:51;;;;;;;5.07;3.17;;;;;;;;;;5054520;28;20287;-78
2022/09/11 10:34:19;;;;;;;5.60;3.60;;;;;;;;;;5069260;28;20465;-78
2022/09/11 10:37:00;;;;;;;5.68;3.53;;;;;;;;;;5058844;28;20025;-77
2022/09/11 10:39:26;;;;;;;6.90;3.92;;;;;;;;;;5057980;28;20026;-80
2022/09/11 10:41:54;;;;;;;5.85;3.38;;;;;;;;;;5064424;28;20024;-80
2022/09/11 10:44:21;;;;;;;7.78;4.32;;;;;;;;;;5077720;28;20573;-81
2022/09/11 10:47:02;;;;;;;6.75;3.80;;;;;;;;;;5076487;28;20041;-79
2022/09/11 10:49:30;;;;;;;6.43;4.10;;;;;;;;;;5051002;28;20036;-79
2022/09/11 10:52:02;;;;;;;5.22;2.92;;;;;;;;;;5063553;28;20569;-80
2022/09/11 10:54:37;;;;;;;6.13;3.30;;;;;;;;;;5067250;28;20028;-79
2022/09/11 10:57:12;;;;;;;4.88;3.17;;;;;;;;;;5072642;28;20096;-79
2022/09/11 10:59:41;;;;;;;4.60;2.90;;;;;;;;;;5055141;28;20017;-79
2022/09/11 11:02:17;;;;;;;4.88;2.90;;;;;;;;;;5056752;28;20024;-83
2022/09/11 11:04:46;;;;;;;4.50;2.70;;;;;;;;;;5055439;28;20029;-81
2022/09/11 11:07:22;;;;;;;4.40;2.42;;;;;;;;;;5055813;28;20040;-78
2022/09/11 11:09:55;;;;;;;4.90;3.03;;;;;;;;;;5055503;28;20029;-80
2022/09/11 11:12:26;;;;;;;4.20;2.60;;;;;;;;;;5056027;28;20048;-78
2022/09/11 11:15:09;;;;;;;5.18;2.60;;;;;;;;;;5055335;28;20039;-79
2022/09/11 11:17:36;;;;;;;;;;;;;;;;;;5055869;28;20504;-78
2022/09/11 11:20:04;;;;;;;4.03;1.92;;;;;;;;;;5054034;28;19905;-78
2022/09/11 11:22:49;;;;;;;3.90;1.80;;;;;;;;;;5055848;28;20100;-79
2022/09/11 11:25:18;;;;;;;3.40;1.40;;;;;;;;;;5056056;28;20059;-80
2022/09/11 11:28:03;;;;;;;3.25;1.50;;;;;;;;;;5079296;28;20026;-79
2022/09/11 11:30:33;;;;;;;2.75;1.13;;;;;;;;;;5054522;28;20068;-80
2022/09/11 11:33:00;;;;;;;3.75;1.35;;;;;;;;;;5055301;28;20032;-80
2022/09/11 11:35:29;;;;;;;3.72;1.45;;;;;;;;;;5050040;28;20029;-79
2022/09/11 11:38:00;;;;;;;2.80;1.30;;;;;;;;;;5055152;28;20024;-81
2022/09/11 11:40:29;;;;;;;3.47;1.35;;;;;;;;;;5057345;28;20020;-80
2022/09/11 11:43:06;;;;;;;3.50;1.50;;;;;;;;;;5058438;28;20147;-80
2022/09/11 11:45:36;;;;;;;4.07;2.17;;;;;;;;;;5061524;28;20070;-80
2022/09/11 11:48:08;;;;;;;3.97;2.22;;;;;;;;;;5063077;28;20045;-80
2022/09/11 11:50:39;;;;;;;4.90;2.50;;;;;;;;;;5057374;28;20057;-80
2022/09/11 11:53:11;;;;;;;3.97;2.35;;;;;;;;;;5058466;28;20025;-80
2022/09/11 11:55:55;;;;;;;4.15;2.50;;;;;;;;;;5061709;28;20056;-79
2022/09/11 11:58:21;;;;;;;4.15;2.40;;;;;;;;;;5073471;28;20077;-80
2022/09/11 12:00:52;;;;;;;3.70;2.13;;;;;;;;;;5055750;28;20439;-78
2022/09/11 12:03:22;;;;;;;4.82;2.17;;;;;;;;;;5055219;28;20051;-78
2022/09/11 12:05:48;;;;;;;3.88;2.13;;;;;;;;;;5055360;28;20385;-79
2022/09/11 12:08:15;;;;;;;4.40;2.80;;;;;;;;;;5055912;28;20029;-78
2022/09/11 12:10:44;;;;;;;3.60;1.90;;;;;;;;;;5054728;28;20299;-80
2022/09/11 12:13:14;;;;;;;3.70;1.60;;;;;;;;;;5055078;28;20032;-80
2022/09/11 12:15:57;;;;;;;3.83;1.67;;;;;;;;;;5040969;28;20156;-79
2022/09/11 12:18:24;;;;;;;3.35;1.50;;;;;;;;;;5050688;28;20033;-81
2022/09/11 12:20:50;;;;;;;3.30;1.50;;;;;;;;;;5056802;28;20035;-79
2022/09/11 12:23:33;;;;;;;3.83;1.40;;;;;;;;;;5052194;28;20032;-79
2022/09/11 12:26:08;;;;;;;2.72;1.30;;;;;;;;;;5063374;28;20024;-79
2022/09/11 12:28:34;;;;;;;3.55;1.30;;;;;;;;;;5062585;28;20032;-81
2022/09/11 12:31:00;;;;;;;2.70;1.48;;;;;;;;;;5057318;28;20040;-81
2022/09/11 12:33:46;;;;;;;3.22;1.30;;;;;;;;;;5057356;28;20052;-79
2022/09/11 12:36:12;;;;;;;2.35;0.90;;;;;;;;;;5056927;28;20051;-79
2022/09/11 12:38:38;;;;;;;2.28;1.02;;;;;;;;;;5063700;28;20040;-79
2022/09/11 12:41:12;;;;;;;1.80;0.85;;;;;;;;;;5064187;28;20033;-79
2022/09/11 12:43:40;;;;;;;2.95;1.00;;;;;;;;;;5051272;28;20029;-79
2022/09/11 12:46:11;;;;;;;2.35;0.88;;;;;;;;;;5053700;28;20033;-80
2022/09/11 12:48:42;;;;;;;1.70;0.80;;;;;;;;;;5056345;28;20059;-81
2022/09/11 12:51:23;;;;;;;3.80;1.05;;;;;;;;;;5069989;28;20436;-81
2022/09/11 12:53:59;;;;;;;2.05;0.80;;;;;;;;;;5058013;28;20099;-81
2022/09/11 12:56:26;;;;;;;1.73;0.77;;;;;;;;;;5056857;28;20024;-79
2022/09/11 12:59:12;;;;;;;1.73;0.60;;;;;;;;;;5056068;28;20158;-82
2022/09/11 13:01:43;;;;;;;1.00;0.43;;;;;;;;;;5047080;28;20036;-82
2022/09/11 13:04:09;;;;;;;1.90;0.60;;;;;;;;;;5054772;28;20433;-81
2022/09/11 13:06:46;;;;;;;2.10;0.60;;;;;;;;;;5056922;28;20116;-78
2022/09/11 13:09:36;;;;;;;2.05;0.70;;;;;;;;;;5054986;28;20025;-81
2022/09/11 13:12:21;;;;;;;1.73;0.68;;;;;;;;;;5076132;28;20044;-82
2022/09/11 13:14:48;;;;;;;2.25;0.70;;;;;;;;;;5049682;28;20119;-81
2022/09/11 13:17:17;;;;;;;2.20;0.80;;;;;;;;;;5054762;28;20076;-79
2022/09/11 13:19:43;;;;;;;1.50;0.70;;;;;;;;;;5055304;28;20043;-79
2022/09/11 13:22:23;;;;;;;1.88;0.70;;;;;;;;;;5059400;28;20025;-80
2022/09/11 13:24:49;;;;;;;1.50;0.68;;;;;;;;;;5054248;28;20044;-82
2022/09/11 13:27:27;;;;;;;1.85;0.70;;;;;;;;;;5052980;28;20028;-79
2022/09/11 13:29:57;;;;;;;1.45;0.60;;;;;;;;;;5054057;28;20392;-78
2022/09/11 13:32:23;;;;;;;1.40;0.60;;;;;;;;;;5054027;28;20047;-79
2022/09/11 13:35:00;;;;;;;2.20;0.65;;;;;;;;;;5052252;28;20021;-80
2022/09/11 13:37:41;;;;;;;1.83;0.70;;;;;;;;;;5053340;28;20495;-79
2022/09/11 13:40:16;;;;;;;1.67;0.70;;;;;;;;;;5053218;28;20049;-79
2022/09/11 13:42:42;;;;;;;2.13;0.70;;;;;;;;;;5057648;28;20020;-79
2022/09/11 13:45:14;;;;;;;1.38;0.70;;;;;;;;;;5063517;28;20859;-82
2022/09/11 13:47:41;;;;;;;2.65;0.80;;;;;;;;;;5056272;28;20044;-82
2022/09/11 13:50:11;;;;;;;1.60;0.70;;;;;;;;;;5042573;28;20025;-79
2022/09/11 13:52:38;;;;;;;1.13;0.57;;;;;;;;;;5050524;28;20045;-80
2022/09/11 13:55:25;;;;;;;1.30;0.60;;;;;;;;;;5045025;28;20025;-79
2022/09/11 13:57:59;;;;;;;1.65;0.70;;;;;;;;;;5054892;28;20021;-81
2022/09/11 14:00:40;;;;;;;3.97;0.75;;;;;;;;;;5059456;28;20021;-82
2022/09/11 14:03:16;;;;;;;1.48;0.70;;;;;;;;;;5055482;28;20036;-80
2022/09/11 14:05:50;;;;;;;2.50;0.70;;;;;;;;;;5054074;28;20045;-79
2022/09/11 14:08:31;;;;;;;2.35;0.70;;;;;;;;;;5055537;28;20033;-82
2022/09/11 14:11:20;;;;;;;2.25;0.77;;;;;;;;;;5055404;28;20461;-82
2022/09/11 14:13:48;;;;;;;1.48;0.68;;;;;;;;;;5047950;28;20035;-80
2022/09/11 14:16:15;;;;;;;1.85;0.70;;;;;;;;;;5053621;28;20021;-79
2022/09/11 14:18:55;;;;;;;1.75;0.60;;;;;;;;;;5056986;28;20090;-80
2022/09/11 14:21:23;;;;;;;1.90;0.80;;;;;;;;;;5052097;28;20052;-80
2022/09/11 14:23:50;;;;;;;2.15;0.93;;;;;;;;;;5055114;28;20029;-80
2022/09/11 14:26:18;;;;;;;2.00;0.80;;;;;;;;;;5063067;28;20537;-80
2022/09/11 14:28:55;;;;;;;2.03;0.95;;;;;;;;;;5058743;28;20028;-80
2022/09/11 14:31:29;;;;;;;2.50;0.77;;;;;;;;;;5054248;28;20091;-80
2022/09/11 14:34:17;;;;;;;3.03;0.90;;;;;;;;;;5054245;28;20028;-82
2022/09/11 14:36:44;;;;;;;3.47;0.90;;;;;;;;;;5059583;28;20021;-81
2022/09/11 14:39:18;;;;;;;3.60;0.98;;;;;;;;;;5062284;28;20021;-81
2022/09/11 14:41:44;;;;;;;2.30;0.90;;;;;;;;;;5060127;28;20097;-81
2022/09/11 14:44:15;;;;;;;2.15;0.90;;;;;;;;;;5058599;28;20064;-80
2022/09/11 14:46:42;;;;;;;1.70;0.80;;;;;;;;;;5059452;28;20045;-81
2022/09/11 14:49:08;;;;;;;2.80;0.80;;;;;;;;;;5059932;28;20116;-79
2022/09/11 14:51:35;;;;;;;2.10;0.93;;;;;;;;;;5058243;28;20518;-81
2022/09/11 14:54:01;;;;;;;3.03;0.80;;;;;;;;;;5058598;28;20100;-82
2022/09/11 14:56:27;;;;;;;2.00;0.77;;;;;;;;;;5062854;28;20052;-80
2022/09/11 14:58:53;;;;;;;2.15;0.90;;;;;;;;;;5059437;28;20027;-80